sensor_id;sensor_type;location;lat;lon;timestamp;pressure;altitude;pressure_sealevel;temperature;humidity
17072;BME280;7731;50.720;6.912;2023-03-26T00:00:36;99315.97;;;8.62;93.03
17072;BME280;7731;50.720;6.912;2023-03-26T00:03:11;99318.22;;;8.52;91.53
17072;BME280;7731;50.720;6.912;2023-03-26T00:05:43;99319.53;;;8.44;93.54
17072;BME280;7731;50.720;6.912;2023-03-26T00:08:16;99310.81;;;8.78;98.13
17072;BME280;7731;50.720;6.912;2023-03-26T00:10:46;99317.19;;;8.55;95.05
17072;BME280;7731;50.720;6.912;2023-03-26T00:13:17;99328.22;;;8.39;96.44
17072;BME280;7731;50.720;6.912;2023-03-26T00:15:51;99320.63;;;8.22;98.12
17072;BME280;7731;50.720;6.912;2023-03-26T00:18:22;99318.84;;;8.56;100.00
17072;BME280;7731;50.720;6.912;2023-03-26T00:21:00;99314.22;;;8.79;100.00
17072;BME280;7731;50.720;6.912;2023-03-26T00:23:33;99320.53;;;8.57;98.09
17072;BME280;7731;50.720;6.912;2023-03-26T00:26:05;99300.53;;;8.48;99.49
17072;BME280;7731;50.720;6.912;2023-03-26T00:28:40;99321.16;;;8.61;100.00
17072;BME280;7731;50.720;6.912;2023-03-26T00:31:14;99311.09;;;8.57;100.00
17072;BME280;7731;50.720;6.912;2023-03-26T00:33:45;99309.09;;;8.79;100.00
17072;BME280;7731;50.720;6.912;2023-03-26T00:36:16;99301.97;;;8.84;99.74
17072;BME280;7731;50.720;6.912;2023-03-26T00:38:47;99295.88;;;8.86;99.04
17072;BME280;7731;50.720;6.912;2023-03-26T00:41:23;99291.38;;;8.90;99.26
17072;BME280;7731;50.720;6.912;2023-03-26T00:43:59;99295.03;;;8.86;100.00
17072;BME280;7731;50.720;6.912;2023-03-26T00:46:32;99286.09;;;8.93;100.00
17072;BME280;7731;50.720;6.912;2023-03-26T00:49:02;99289.00;;;9.17;100.00
17072;BME280;7731;50.720;6.912;2023-03-26T00:51:37;99287.13;;;8.74;100.00
17072;BME280;7731;50.720;6.912;2023-03-26T00:54:08;99282.91;;;8.73;100.00
17072;BME280;7731;50.720;6.912;2023-03-26T00:56:39;99278.38;;;8.79;100.00
17072;BME280;7731;50.720;6.912;2023-03-26T00:59:11;99269.84;;;8.78;100.00
17072;BME280;7731;50.720;6.912;2023-03-26T01:01:45;99272.69;;;8.57;100.00
17072;BME280;7731;50.720;6.912;2023-03-26T01:04:28;99263.50;;;8.69;100.00
17072;BME280;7731;50.720;6.912;2023-03-26T01:07:08;99255.41;;;8.61;100.00
17072;BME280;7731;50.720;6.912;2023-03-26T01:09:45;99258.56;;;8.34;100.00
17072;BME280;7731;50.720;6.912;2023-03-26T01:12:21;99251.28;;;8.43;100.00
17072;BME280;7731;50.720;6.912;2023-03-26T01:14:57;99256.00;;;8.50;100.00
17072;BME280;7731;50.720;6.912;2023-03-26T01:17:30;99248.41;;;8.49;100.00
17072;BME280;7731;50.720;6.912;2023-03-26T01:20:14;99237.25;;;8.34;100.00
17072;BME280;7731;50.720;6.912;2023-03-26T01:22:48;99243.13;;;8.52;100.00
17072;BME280;7731;50.720;6.912;2023-03-26T01:25:28;99240.38;;;8.23;100.00
17072;BME280;7731;50.720;6.912;2023-03-26T01:28:03;99240.31;;;8.09;100.00
17072;BME280;7731;50.720;6.912;2023-03-26T01:30:41;99238.91;;;8.03;100.00
17072;BME280;7731;50.720;6.912;2023-03-26T01:33:27;99232.81;;;8.05;100.00
17072;BME280;7731;50.720;6.912;2023-03-26T01:36:09;99237.75;;;7.93;100.00
17072;BME280;7731;50.720;6.912;2023-03-26T01:38:54;99227.69;;;7.90;100.00
17072;BME280;7731;50.720;6.912;2023-03-26T01:41:37;99223.41;;;8.22;100.00
17072;BME280;7731;50.720;6.912;2023-03-26T01:44:21;99215.28;;;8.14;100.00
17072;BME280;7731;50.720;6.912;2023-03-26T01:46:55;99214.56;;;8.12;100.00
17072;BME280;7731;50.720;6.912;2023-03-26T01:49:28;99218.28;;;8.06;100.00
17072;BME280;7731;50.720;6.912;2023-03-26T01:52:13;99216.22;;;7.97;100.00
17072;BME280;7731;50.720;6.912;2023-03-26T01:54:44;99211.34;;;8.24;100.00
17072;BME280;7731;50.720;6.912;2023-03-26T01:57:33;99208.22;;;8.19;100.00
17072;BME280;7731;50.720;6.912;2023-03-26T02:00:24;99205.53;;;8.36;100.00
17072;BME280;7731;50.720;6.912;2023-03-26T02:03:19;99196.78;;;8.40;100.00
17072;BME280;7731;50.720;6.912;2023-03-26T02:06:01;99191.19;;;8.50;100.00
17072;BME280;7731;50.720;6.912;2023-03-26T02:08:41;99185.75;;;8.24;100.00
17072;BME280;7731;50.720;6.912;2023-03-26T02:11:15;99185.16;;;8.35;100.00
17072;BME280;7731;50.720;6.912;2023-03-26T02:13:52;99172.19;;;8.54;100.00
17072;BME280;7731;50.720;6.912;2023-03-26T02:16:23;99168.06;;;8.35;100.00
17072;BME280;7731;50.720;6.912;2023-03-26T02:18:54;99164.25;;;8.43;100.00
17072;BME280;7731;50.720;6.912;2023-03-26T02:21:26;99164.13;;;8.30;100.00
17072;BME280;7731;50.720;6.912;2023-03-26T02:24:02;99159.94;;;8.45;100.00
17072;BME280;7731;50.720;6.912;2023-03-26T02:26:34;99140.63;;;8.53;100.00
17072;BME280;7731;50.720;6.912;2023-03-26T02:29:08;99144.13;;;8.36;100.00
17072;BME280;7731;50.720;6.912;2023-03-26T02:31:40;99145.63;;;8.25;100.00
17072;BME280;7731;50.720;6.912;2023-03-26T02:34:11;99142.81;;;8.45;100.00
17072;BME280;7731;50.720;6.912;2023-03-26T02:36:44;99140.00;;;8.50;100.00
17072;BME280;7731;50.720;6.912;2023-03-26T02:39:15;99137.56;;;8.63;100.00
17072;BME280;7731;50.720;6.912;2023-03-26T02:41:46;99137.09;;;8.56;100.00
17072;BME280;7731;50.720;6.912;2023-03-26T02:44:19;99135.22;;;8.44;100.00
17072;BME280;7731;50.720;6.912;2023-03-26T02:46:50;99138.94;;;8.54;100.00
17072;BME280;7731;50.720;6.912;2023-03-26T02:49:21;99130.00;;;8.75;100.00
17072;BME280;7731;50.720;6.912;2023-03-26T02:51:52;99131.53;;;8.64;100.00
17072;BME280;7731;50.720;6.912;2023-03-26T02:54:23;99126.47;;;8.48;100.00
17072;BME280;7731;50.720;6.912;2023-03-26T02:56:53;99122.66;;;8.39;100.00
17072;BME280;7731;50.720;6.912;2023-03-26T02:59:27;99117.22;;;8.45;100.00
17072;BME280;7731;50.720;6.912;2023-03-26T03:01:57;99111.28;;;8.45;100.00
17072;BME280;7731;50.720;6.912;2023-03-26T03:04:28;99108.94;;;8.56;100.00
17072;BME280;7731;50.720;6.912;2023-03-26T03:06:59;99104.56;;;8.72;100.00
17072;BME280;7731;50.720;6.912;2023-03-26T03:09:29;99090.66;;;8.76;100.00
17072;BME280;7731;50.720;6.912;2023-03-26T03:12:02;99087.56;;;8.71;100.00
17072;BME280;7731;50.720;6.912;2023-03-26T03:14:34;99085.91;;;8.70;100.00
17072;BME280;7731;50.720;6.912;2023-03-26T03:17:05;99078.13;;;8.57;100.00
17072;BME280;7731;50.720;6.912;2023-03-26T03:19:35;99075.47;;;8.73;100.00
17072;BME280;7731;50.720;6.912;2023-03-26T03:22:06;99079.34;;;8.81;100.00
17072;BME280;7731;50.720;6.912;2023-03-26T03:24:37;99071.91;;;8.62;100.00
17072;BME280;7731;50.720;6.912;2023-03-26T03:27:11;99064.69;;;8.54;100.00
17072;BME280;7731;50.720;6.912;2023-03-26T03:29:44;99058.81;;;8.52;100.00
17072;BME280;7731;50.720;6.912;2023-03-26T03:32:16;99054.00;;;8.31;100.00
17072;BME280;7731;50.720;6.912;2023-03-26T03:34:49;99060.56;;;8.35;100.00
17072;BME280;7731;50.720;6.912;2023-03-26T03:37:20;99048.72;;;8.34;100.00
17072;BME280;7731;50.720;6.912;2023-03-26T03:39:52;99045.91;;;8.23;100.00
17072;BME280;7731;50.720;6.912;2023-03-26T03:42:22;99037.06;;;8.45;100.00
17072;BME280;7731;50.720;6.912;2023-03-26T03:44:57;99030.41;;;8.26;100.00
17072;BME280;7731;50.720;6.912;2023-03-26T03:47:29;99021.25;;;8.52;100.00
17072;BME280;7731;50.720;6.912;2023-03-26T03:49:59;99017.81;;;8.37;100.00
17072;BME280;7731;50.720;6.912;2023-03-26T03:52:33;99017.22;;;8.18;100.00
17072;BME280;7731;50.720;6.912;2023-03-26T03:55:09;99023.69;;;8.09;100.00
17072;BME280;7731;50.720;6.912;2023-03-26T03:57:40;99005.69;;;8.11;100.00
17072;BME280;7731;50.720;6.912;2023-03-26T04:00:18;99008.28;;;8.25;100.00
17072;BME280;7731;50.720;6.912;2023-03-26T04:02:49;98999.63;;;8.42;100.00
17072;BME280;7731;50.720;6.912;2023-03-26T04:05:21;98999.16;;;8.35;100.00
17072;BME280;7731;50.720;6.912;2023-03-26T04:07:57;99002.59;;;8.20;100.00
17072;BME280;7731;50.720;6.912;2023-03-26T04:10:27;98999.31;;;8.18;100.00
17072;BME280;7731;50.720;6.912;2023-03-26T04:12:58;98996.13;;;8.14;100.00
17072;BME280;7731;50.720;6.912;2023-03-26T04:15:31;98998.34;;;8.20;100.00
17072;BME280;7731;50.720;6.912;2023-03-26T04:18:02;98991.66;;;8.18;100.00
17072;BME280;7731;50.720;6.912;2023-03-26T04:20:39;98978.56;;;8.53;100.00
17072;BME280;7731;50.720;6.912;2023-03-26T04:23:15;98975.41;;;8.33;100.00
17072;BME280;7731;50.720;6.912;2023-03-26T04:25:56;98969.69;;;8.14;100.00
17072;BME280;7731;50.720;6.912;2023-03-26T04:28:33;98960.22;;;8.30;100.00
17072;BME280;7731;50.720;6.912;2023-03-26T04:31:17;98960.94;;;8.18;100.00
17072;BME280;7731;50.720;6.912;2023-03-26T04:33:51;98962.97;;;8.13;100.00
17072;BME280;7731;50.720;6.912;2023-03-26T04:36:29;98962.97;;;8.13;100.00
17072;BME280;7731;50.720;6.912;2023-03-26T04:39:03;98946.53;;;8.31;100.00
17072;BME280;7731;50.720;6.912;2023-03-26T04:41:33;98944.94;;;8.45;100.00
17072;BME280;7731;50.720;6.912;2023-03-26T04:44:04;98940.09;;;8.38;100.00
17072;BME280;7731;50.720;6.912;2023-03-26T04:46:37;98928.41;;;8.05;100.00
17072;BME280;7731;50.720;6.912;2023-03-26T04:49:10;98920.56;;;8.09;100.00
17072;BME280;7731;50.720;6.912;2023-03-26T04:51:41;98919.91;;;8.05;100.00
17072;BME280;7731;50.720;6.912;2023-03-26T04:54:15;98909.97;;;8.15;100.00
17072;BME280;7731;50.720;6.912;2023-03-26T04:56:53;98905.56;;;8.02;100.00
17072;BME280;7731;50.720;6.912;2023-03-26T04:59:28;98902.75;;;7.93;100.00
17072;BME280;7731;50.720;6.912;2023-03-26T05:02:05;98904.44;;;7.92;100.00
17072;BME280;7731;50.720;6.912;2023-03-26T05:04:37;98891.94;;;7.87;100.00
17072;BME280;7731;50.720;6.912;2023-03-26T05:07:10;98896.59;;;7.95;100.00
17072;BME280;7731;50.720;6.912;2023-03-26T05:09:44;98889.28;;;7.89;100.00
17072;BME280;7731;50.720;6.912;2023-03-26T05:12:14;98893.06;;;7.98;100.00
17072;BME280;7731;50.720;6.912;2023-03-26T05:14:45;98891.22;;;8.00;100.00
17072;BME280;7731;50.720;6.912;2023-03-26T05:17:18;98890.50;;;8.12;100.00
17072;BME280;7731;50.720;6.912;2023-03-26T05:19:48;98887.66;;;8.17;100.00
17072;BME280;7731;50.720;6.912;2023-03-26T05:22:19;98883.63;;;7.98;100.00
17072;BME280;7731;50.720;6.912;2023-03-26T05:24:49;98874.25;;;7.99;100.00
17072;BME280;7731;50.720;6.912;2023-03-26T05:27:19;98881.66;;;8.03;100.00
17072;BME280;7731;50.720;6.912;2023-03-26T05:29:51;98868.47;;;7.95;100.00
17072;BME280;7731;50.720;6.912;2023-03-26T05:32:24;98865.56;;;8.16;100.00
17072;BME280;7731;50.720;6.912;2023-03-26T05:34:55;98861.00;;;8.07;100.00
17072;BME280;7731;50.720;6.912;2023-03-26T05:37:28;98855.22;;;8.03;100.00
17072;BME280;7731;50.720;6.912;2023-03-26T05:39:58;98847.56;;;7.74;100.00
17072;BME280;7731;50.720;6.912;2023-03-26T05:42:30;98839.34;;;7.83;100.00
17072;BME280;7731;50.720;6.912;2023-03-26T05:45:00;98837.16;;;7.77;100.00
17072;BME280;7731;50.720;6.912;2023-03-26T05:47:33;98834.28;;;7.67;100.00
17072;BME280;7731;50.720;6.912;2023-03-26T05:50:06;98835.03;;;7.69;100.00
17072;BME280;7731;50.720;6.912;2023-03-26T05:52:37;98826.28;;;7.74;100.00
17072;BME280;7731;50.720;6.912;2023-03-26T05:55:08;98831.41;;;7.88;100.00
17072;BME280;7731;50.720;6.912;2023-03-26T05:57:39;98815.88;;;7.91;100.00
17072;BME280;7731;50.720;6.912;2023-03-26T06:00:11;98821.72;;;7.93;100.00
17072;BME280;7731;50.720;6.912;2023-03-26T06:02:47;98813.31;;;7.91;100.00
17072;BME280;7731;50.720;6.912;2023-03-26T06:05:23;98803.44;;;7.99;100.00
17072;BME280;7731;50.720;6.912;2023-03-26T06:07:53;98810.09;;;7.87;100.00
17072;BME280;7731;50.720;6.912;2023-03-26T06:10:23;98815.41;;;7.84;100.00
17072;BME280;7731;50.720;6.912;2023-03-26T06:12:53;98807.00;;;7.82;100.00
17072;BME280;7731;50.720;6.912;2023-03-26T06:15:24;98800.25;;;7.81;100.00
17072;BME280;7731;50.720;6.912;2023-03-26T06:17:57;98793.88;;;7.74;100.00
17072;BME280;7731;50.720;6.912;2023-03-26T06:20:27;98782.81;;;7.74;100.00
17072;BME280;7731;50.720;6.912;2023-03-26T06:22:57;98778.25;;;7.64;100.00
17072;BME280;7731;50.720;6.912;2023-03-26T06:25:27;98785.19;;;7.62;100.00
17072;BME280;7731;50.720;6.912;2023-03-26T06:27:58;98786.84;;;7.63;100.00
17072;BME280;7731;50.720;6.912;2023-03-26T06:30:28;98785.38;;;7.59;100.00
17072;BME280;7731;50.720;6.912;2023-03-26T06:33:01;98779.91;;;7.65;100.00
17072;BME280;7731;50.720;6.912;2023-03-26T06:35:31;98785.53;;;7.71;100.00
17072;BME280;7731;50.720;6.912;2023-03-26T06:38:03;98790.84;;;7.96;100.00
17072;BME280;7731;50.720;6.912;2023-03-26T06:40:34;98785.75;;;7.82;100.00
17072;BME280;7731;50.720;6.912;2023-03-26T06:43:05;98779.91;;;7.51;100.00
17072;BME280;7731;50.720;6.912;2023-03-26T06:45:37;98784.78;;;7.40;100.00
17072;BME280;7731;50.720;6.912;2023-03-26T06:48:12;98786.44;;;7.41;100.00
17072;BME280;7731;50.720;6.912;2023-03-26T06:50:43;98780.22;;;7.30;100.00
17072;BME280;7731;50.720;6.912;2023-03-26T06:53:13;98774.97;;;7.48;100.00
17072;BME280;7731;50.720;6.912;2023-03-26T06:55:43;98765.47;;;7.50;100.00
17072;BME280;7731;50.720;6.912;2023-03-26T06:58:14;98769.38;;;7.41;100.00
17072;BME280;7731;50.720;6.912;2023-03-26T07:00:46;98754.66;;;7.30;100.00
17072;BME280;7731;50.720;6.912;2023-03-26T07:03:19;98763.22;;;7.29;100.00
17072;BME280;7731;50.720;6.912;2023-03-26T07:05:50;98753.56;;;7.20;100.00
17072;BME280;7731;50.720;6.912;2023-03-26T07:08:20;98744.81;;;7.24;100.00
17072;BME280;7731;50.720;6.912;2023-03-26T07:10:52;98750.09;;;7.21;100.00
17072;BME280;7731;50.720;6.912;2023-03-26T07:13:23;98739.53;;;7.27;100.00
17072;BME280;7731;50.720;6.912;2023-03-26T07:15:53;98744.75;;;7.40;100.00
17072;BME280;7731;50.720;6.912;2023-03-26T07:18:28;98734.78;;;7.36;100.00
17072;BME280;7731;50.720;6.912;2023-03-26T07:21:00;98737.09;;;7.40;100.00
17072;BME280;7731;50.720;6.912;2023-03-26T07:23:31;98730.41;;;7.38;100.00
17072;BME280;7731;50.720;6.912;2023-03-26T07:26:22;98724.72;;;7.32;100.00
17072;BME280;7731;50.720;6.912;2023-03-26T07:29:00;98724.75;;;7.47;100.00
17072;BME280;7731;50.720;6.912;2023-03-26T07:31:43;98721.66;;;7.42;100.00
17072;BME280;7731;50.720;6.912;2023-03-26T07:34:39;98720.00;;;7.41;100.00
17072;BME280;7731;50.720;6.912;2023-03-26T07:37:39;98707.13;;;7.28;100.00
17072;BME280;7731;50.720;6.912;2023-03-26T07:40:33;98707.41;;;7.23;100.00
17072;BME280;7731;50.720;6.912;2023-03-26T07:43:24;98701.47;;;7.23;100.00
17072;BME280;7731;50.720;6.912;2023-03-26T07:45:57;98692.25;;;7.20;100.00
17072;BME280;7731;50.720;6.912;2023-03-26T07:48:39;98694.97;;;7.17;100.00
17072;BME280;7731;50.720;6.912;2023-03-26T07:51:14;98691.63;;;7.17;100.00
17072;BME280;7731;50.720;6.912;2023-03-26T07:53:45;98684.84;;;7.15;100.00
17072;BME280;7731;50.720;6.912;2023-03-26T07:56:18;98690.63;;;7.19;100.00
17072;BME280;7731;50.720;6.912;2023-03-26T07:59:19;98682.22;;;7.17;100.00
17072;BME280;7731;50.720;6.912;2023-03-26T08:02:26;98677.66;;;7.08;100.00
17072;BME280;7731;50.720;6.912;2023-03-26T08:05:12;98674.00;;;7.12;100.00
17072;BME280;7731;50.720;6.912;2023-03-26T08:08:04;98678.66;;;7.05;100.00
17072;BME280;7731;50.720;6.912;2023-03-26T08:11:01;98670.38;;;7.16;100.00
17072;BME280;7731;50.720;6.912;2023-03-26T08:13:47;98674.91;;;7.11;100.00
17072;BME280;7731;50.720;6.912;2023-03-26T08:16:30;98671.63;;;7.09;100.00
17072;BME280;7731;50.720;6.912;2023-03-26T08:19:29;98665.81;;;7.07;100.00
17072;BME280;7731;50.720;6.912;2023-03-26T08:22:13;98672.34;;;7.11;100.00
17072;BME280;7731;50.720;6.912;2023-03-26T08:25:10;98673.56;;;7.05;100.00
17072;BME280;7731;50.720;6.912;2023-03-26T08:28:03;98655.94;;;7.15;100.00
17072;BME280;7731;50.720;6.912;2023-03-26T08:30:42;98662.81;;;7.14;100.00
17072;BME280;7731;50.720;6.912;2023-03-26T08:33:18;98665.09;;;7.19;100.00
17072;BME280;7731;50.720;6.912;2023-03-26T08:35:49;98662.25;;;7.24;100.00
17072;BME280;7731;50.720;6.912;2023-03-26T08:38:21;98659.97;;;7.19;100.00
17072;BME280;7731;50.720;6.912;2023-03-26T08:45:19;98641.72;;;7.40;100.00
17072;BME280;7731;50.720;6.912;2023-03-26T08:48:55;98640.91;;;7.39;100.00
17072;BME280;7731;50.720;6.912;2023-03-26T08:55:36;98630.03;;;7.21;100.00
17072;BME280;7731;50.720;6.912;2023-03-26T09:05:25;98610.50;;;7.20;100.00
17072;BME280;7731;50.720;6.912;2023-03-26T09:16:09;98590.59;;;7.54;100.00
17072;BME280;7731;50.720;6.912;2023-03-26T09:26:17;98576.03;;;7.69;100.00
17072;BME280;7731;50.720;6.912;2023-03-26T09:32:56;98557.53;;;8.46;100.00
17072;BME280;7731;50.720;6.912;2023-03-26T09:35:52;98554.50;;;9.16;100.00
17072;BME280;7731;50.720;6.912;2023-03-26T09:38:42;98546.81;;;9.53;100.00
17072;BME280;7731;50.720;6.912;2023-03-26T09:41:16;98540.16;;;10.10;100.00
17072;BME280;7731;50.720;6.912;2023-03-26T09:44:43;98534.34;;;10.89;100.00
17072;BME280;7731;50.720;6.912;2023-03-26T09:47:41;98512.16;;;12.81;100.00
17072;BME280;7731;50.720;6.912;2023-03-26T09:50:38;98513.53;;;12.33;100.00
17072;BME280;7731;50.720;6.912;2023-03-26T09:53:56;98520.88;;;11.31;100.00
17072;BME280;7731;50.720;6.912;2023-03-26T09:56:56;98515.09;;;10.72;100.00
17072;BME280;7731;50.720;6.912;2023-03-26T09:59:56;98511.59;;;10.15;100.00
17072;BME280;7731;50.720;6.912;2023-03-26T10:03:10;98523.13;;;9.25;100.00
17072;BME280;7731;50.720;6.912;2023-03-26T10:05:54;98512.97;;;8.87;100.00
17072;BME280;7731;50.720;6.912;2023-03-26T10:09:04;98521.78;;;9.20;100.00
17072;BME280;7731;50.720;6.912;2023-03-26T10:11:55;98515.75;;;9.21;100.00
17072;BME280;7731;50.720;6.912;2023-03-26T10:14:36;98515.53;;;8.87;100.00
17072;BME280;7731;50.720;6.912;2023-03-26T10:17:42;98518.44;;;8.69;100.00
17072;BME280;7731;50.720;6.912;2023-03-26T10:20:38;98513.81;;;8.49;100.00
17072;BME280;7731;50.720;6.912;2023-03-26T10:26:56;98514.41;;;8.27;100.00
17072;BME280;7731;50.720;6.912;2023-03-26T10:33:00;98499.66;;;8.30;100.00
17072;BME280;7731;50.720;6.912;2023-03-26T10:35:49;98501.91;;;8.35;100.00
17072;BME280;7731;50.720;6.912;2023-03-26T10:38:38;98502.41;;;8.27;100.00
17072;BME280;7731;50.720;6.912;2023-03-26T10:41:25;98491.97;;;8.17;100.00
17072;BME280;7731;50.720;6.912;2023-03-26T10:44:38;98487.78;;;8.42;100.00
17072;BME280;7731;50.720;6.912;2023-03-26T10:48:15;98484.31;;;8.30;100.00
17072;BME280;7731;50.720;6.912;2023-03-26T10:51:04;98478.50;;;8.54;100.00
17072;BME280;7731;50.720;6.912;2023-03-26T10:53:47;98475.13;;;8.66;100.00
17072;BME280;7731;50.720;6.912;2023-03-26T10:56:26;98473.81;;;8.48;100.00
17072;BME280;7731;50.720;6.912;2023-03-26T10:59:05;98470.19;;;8.50;100.00
17072;BME280;7731;50.720;6.912;2023-03-26T11:01:47;98466.69;;;8.64;100.00
17072;BME280;7731;50.720;6.912;2023-03-26T11:04:35;98462.75;;;8.84;100.00
17072;BME280;7731;50.720;6.912;2023-03-26T11:07:21;98452.47;;;8.73;100.00
17072;BME280;7731;50.720;6.912;2023-03-26T11:10:02;98456.34;;;8.79;100.00
17072;BME280;7731;50.720;6.912;2023-03-26T11:12:43;98455.81;;;8.73;100.00
17072;BME280;7731;50.720;6.912;2023-03-26T11:15:25;98454.63;;;8.66;100.00
17072;BME280;7731;50.720;6.912;2023-03-26T11:18:09;98470.44;;;8.97;100.00
17072;BME280;7731;50.720;6.912;2023-03-26T11:20:50;98473.69;;;8.99;100.00
17072;BME280;7731;50.720;6.912;2023-03-26T11:23:58;98483.47;;;9.18;100.00
17072;BME280;7731;50.720;6.912;2023-03-26T11:26:43;98471.59;;;9.41;100.00
17072;BME280;7731;50.720;6.912;2023-03-26T11:29:45;98480.47;;;9.48;100.00
17072;BME280;7731;50.720;6.912;2023-03-26T11:32:36;98490.56;;;9.15;100.00
17072;BME280;7731;50.720;6.912;2023-03-26T11:35:17;98484.50;;;8.79;100.00
17072;BME280;7731;50.720;6.912;2023-03-26T11:38:17;98488.19;;;8.74;100.00
17072;BME280;7731;50.720;6.912;2023-03-26T11:40:54;98490.44;;;8.79;100.00
17072;BME280;7731;50.720;6.912;2023-03-26T11:43:31;98478.34;;;8.43;100.00
17072;BME280;7731;50.720;6.912;2023-03-26T11:46:07;98489.91;;;8.35;100.00
17072;BME280;7731;50.720;6.912;2023-03-26T11:48:45;98487.38;;;8.22;100.00
17072;BME280;7731;50.720;6.912;2023-03-26T11:51:28;98494.72;;;8.01;100.00
17072;BME280;7731;50.720;6.912;2023-03-26T11:53:59;98495.50;;;7.89;100.00
17072;BME280;7731;50.720;6.912;2023-03-26T11:56:32;98500.16;;;8.10;100.00
17072;BME280;7731;50.720;6.912;2023-03-26T11:59:10;98504.63;;;7.93;100.00
17072;BME280;7731;50.720;6.912;2023-03-26T12:01:49;98503.63;;;8.21;100.00
17072;BME280;7731;50.720;6.912;2023-03-26T12:04:33;98501.88;;;8.09;100.00
17072;BME280;7731;50.720;6.912;2023-03-26T12:07:14;98499.00;;;8.01;100.00
17072;BME280;7731;50.720;6.912;2023-03-26T12:09:50;98498.22;;;8.26;100.00
17072;BME280;7731;50.720;6.912;2023-03-26T12:12:23;98497.38;;;8.38;100.00
17072;BME280;7731;50.720;6.912;2023-03-26T12:14:54;98500.69;;;8.40;100.00
17072;BME280;7731;50.720;6.912;2023-03-26T12:17:31;98494.53;;;8.82;100.00
17072;BME280;7731;50.720;6.912;2023-03-26T12:20:33;98499.28;;;8.62;100.00
17072;BME280;7731;50.720;6.912;2023-03-26T12:23:33;98491.66;;;8.86;100.00
17072;BME280;7731;50.720;6.912;2023-03-26T12:26:13;98495.03;;;9.24;100.00
17072;BME280;7731;50.720;6.912;2023-03-26T12:28:47;98499.69;;;9.19;100.00
17072;BME280;7731;50.720;6.912;2023-03-26T12:31:18;98499.88;;;8.79;100.00
17072;BME280;7731;50.720;6.912;2023-03-26T12:34:06;98487.25;;;9.50;100.00
17072;BME280;7731;50.720;6.912;2023-03-26T12:36:47;98495.31;;;9.32;100.00
17072;BME280;7731;50.720;6.912;2023-03-26T12:39:38;98503.94;;;9.31;100.00
17072;BME280;7731;50.720;6.912;2023-03-26T12:42:32;98494.59;;;9.30;100.00
17072;BME280;7731;50.720;6.912;2023-03-26T12:45:28;98503.63;;;9.23;100.00
17072;BME280;7731;50.720;6.912;2023-03-26T12:48:00;98499.78;;;9.65;100.00
17072;BME280;7731;50.720;6.912;2023-03-26T12:50:52;98499.72;;;9.78;100.00
17072;BME280;7731;50.720;6.912;2023-03-26T12:53:47;98496.66;;;9.73;100.00
17072;BME280;7731;50.720;6.912;2023-03-26T12:56:30;98501.66;;;9.99;100.00
17072;BME280;7731;50.720;6.912;2023-03-26T12:59:28;98503.97;;;9.91;100.00
17072;BME280;7731;50.720;6.912;2023-03-26T13:02:30;98501.16;;;9.34;100.00
17072;BME280;7731;50.720;6.912;2023-03-26T13:05:27;98504.97;;;9.77;100.00
17072;BME280;7731;50.720;6.912;2023-03-26T13:08:23;98492.84;;;9.06;100.00
17072;BME280;7731;50.720;6.912;2023-03-26T13:11:08;98507.53;;;9.53;100.00
17072;BME280;7731;50.720;6.912;2023-03-26T13:14:23;98501.38;;;9.31;100.00
17072;BME280;7731;50.720;6.912;2023-03-26T13:17:08;98508.13;;;9.80;100.00
17072;BME280;7731;50.720;6.912;2023-03-26T13:19:53;98503.81;;;10.28;100.00
17072;BME280;7731;50.720;6.912;2023-03-26T13:22:40;98507.19;;;10.17;100.00
17072;BME280;7731;50.720;6.912;2023-03-26T13:25:29;98516.22;;;9.98;100.00
17072;BME280;7731;50.720;6.912;2023-03-26T13:28:43;98509.94;;;10.02;100.00
17072;BME280;7731;50.720;6.912;2023-03-26T13:31:26;98521.72;;;10.05;100.00
17072;BME280;7731;50.720;6.912;2023-03-26T13:34:09;98512.94;;;9.61;100.00
17072;BME280;7731;50.720;6.912;2023-03-26T13:36:57;98513.56;;;10.11;100.00
17072;BME280;7731;50.720;6.912;2023-03-26T13:39:44;98519.63;;;10.10;100.00
17072;BME280;7731;50.720;6.912;2023-03-26T13:42:34;98520.47;;;10.11;100.00
17072;BME280;7731;50.720;6.912;2023-03-26T13:45:25;98522.81;;;10.25;100.00
17072;BME280;7731;50.720;6.912;2023-03-26T13:48:02;98525.72;;;10.09;100.00
17072;BME280;7731;50.720;6.912;2023-03-26T13:50:40;98518.34;;;9.69;100.00
17072;BME280;7731;50.720;6.912;2023-03-26T13:53:18;98522.38;;;8.99;100.00
17072;BME280;7731;50.720;6.912;2023-03-26T13:55:54;98531.16;;;8.95;100.00
17072;BME280;7731;50.720;6.912;2023-03-26T13:58:33;98529.56;;;9.31;100.00
17072;BME280;7731;50.720;6.912;2023-03-26T14:01:13;98534.06;;;9.27;100.00
17072;BME280;7731;50.720;6.912;2023-03-26T14:03:56;98536.50;;;9.66;100.00
17072;BME280;7731;50.720;6.912;2023-03-26T14:06:42;98530.91;;;9.24;100.00
17072;BME280;7731;50.720;6.912;2023-03-26T14:09:21;98542.38;;;8.94;100.00
17072;BME280;7731;50.720;6.912;2023-03-26T14:12:40;98544.91;;;8.94;100.00
17072;BME280;7731;50.720;6.912;2023-03-26T14:15:21;98544.94;;;8.68;100.00
17072;BME280;7731;50.720;6.912;2023-03-26T14:18:21;98542.25;;;8.96;100.00
17072;BME280;7731;50.720;6.912;2023-03-26T14:24:57;98544.72;;;8.46;100.00
17072;BME280;7731;50.720;6.912;2023-03-26T14:27:44;98536.53;;;8.79;100.00
17072;BME280;7731;50.720;6.912;2023-03-26T14:30:59;98550.31;;;8.25;100.00
17072;BME280;7731;50.720;6.912;2023-03-26T14:34:00;98557.00;;;8.53;100.00
17072;BME280;7731;50.720;6.912;2023-03-26T14:37:19;98558.47;;;8.45;100.00
17072;BME280;7731;50.720;6.912;2023-03-26T14:40:25;98561.06;;;8.30;100.00
17072;BME280;7731;50.720;6.912;2023-03-26T14:43:41;98564.38;;;8.58;100.00
17072;BME280;7731;50.720;6.912;2023-03-26T14:46:34;98554.78;;;8.74;100.00
17072;BME280;7731;50.720;6.912;2023-03-26T14:49:31;98564.69;;;8.53;100.00
17072;BME280;7731;50.720;6.912;2023-03-26T14:52:10;98553.06;;;8.22;100.00
17072;BME280;7731;50.720;6.912;2023-03-26T14:54:51;98561.50;;;8.88;100.00
17072;BME280;7731;50.720;6.912;2023-03-26T14:57:54;98558.66;;;8.80;100.00
17072;BME280;7731;50.720;6.912;2023-03-26T15:01:22;98555.38;;;8.78;100.00
17072;BME280;7731;50.720;6.912;2023-03-26T15:04:49;98561.34;;;8.79;100.00
17072;BME280;7731;50.720;6.912;2023-03-26T15:07:56;98566.66;;;8.75;100.00